sensor_id;sensor_type;location;lat;lon;timestamp;temperature;humidity
61201;DHT22;47065;52.898;6.992;2022-12-29T00:01:24;10.20;99.90
61201;DHT22;47065;52.898;6.992;2022-12-29T00:03:50;10.20;99.90
61201;DHT22;47065;52.898;6.992;2022-12-29T00:06:16;10.20;99.90
61201;DHT22;47065;52.898;6.992;2022-12-29T00:08:41;10.20;99.90
61201;DHT22;47065;52.898;6.992;2022-12-29T00:11:18;10.20;99.90
61201;DHT22;47065;52.898;6.992;2022-12-29T00:13:44;10.30;99.90
61201;DHT22;47065;52.898;6.992;2022-12-29T00:16:30;10.30;99.90
61201;DHT22;47065;52.898;6.992;2022-12-29T00:18:56;10.30;99.90
61201;DHT22;47065;52.898;6.992;2022-12-29T00:21:23;10.30;99.90
61201;DHT22;47065;52.898;6.992;2022-12-29T00:24:18;10.30;99.90
61201;DHT22;47065;52.898;6.992;2022-12-29T00:29:46;10.40;99.90
61201;DHT22;47065;52.898;6.992;2022-12-29T00:32:31;10.40;99.90
61201;DHT22;47065;52.898;6.992;2022-12-29T00:35:25;10.40;99.90
61201;DHT22;47065;52.898;6.992;2022-12-29T00:37:52;10.40;99.90
61201;DHT22;47065;52.898;6.992;2022-12-29T00:40:38;10.40;99.90
61201;DHT22;47065;52.898;6.992;2022-12-29T00:43:22;10.40;99.90
61201;DHT22;47065;52.898;6.992;2022-12-29T00:46:06;10.40;99.90
61201;DHT22;47065;52.898;6.992;2022-12-29T00:48:32;10.30;99.90
61201;DHT22;47065;52.898;6.992;2022-12-29T00:51:16;10.30;99.90
61201;DHT22;47065;52.898;6.992;2022-12-29T00:53:41;10.30;99.90
61201;DHT22;47065;52.898;6.992;2022-12-29T00:56:07;10.30;99.90
61201;DHT22;47065;52.898;6.992;2022-12-29T00:58:33;10.40;99.90
61201;DHT22;47065;52.898;6.992;2022-12-29T01:01:03;10.40;99.90
61201;DHT22;47065;52.898;6.992;2022-12-29T01:03:29;10.40;99.90
61201;DHT22;47065;52.898;6.992;2022-12-29T01:05:55;10.40;99.90
61201;DHT22;47065;52.898;6.992;2022-12-29T01:08:20;10.40;99.90
61201;DHT22;47065;52.898;6.992;2022-12-29T01:10:46;10.50;99.90
61201;DHT22;47065;52.898;6.992;2022-12-29T01:13:11;10.50;99.90
61201;DHT22;47065;52.898;6.992;2022-12-29T01:15:37;10.50;99.90
61201;DHT22;47065;52.898;6.992;2022-12-29T01:18:03;10.50;99.90
61201;DHT22;47065;52.898;6.992;2022-12-29T01:20:28;10.50;99.90
61201;DHT22;47065;52.898;6.992;2022-12-29T01:22:54;10.50;99.90
61201;DHT22;47065;52.898;6.992;2022-12-29T01:25:20;10.60;99.90
61201;DHT22;47065;52.898;6.992;2022-12-29T01:27:45;10.60;99.90
61201;DHT22;47065;52.898;6.992;2022-12-29T01:30:11;10.60;99.90
61201;DHT22;47065;52.898;6.992;2022-12-29T01:32:37;10.60;99.90
61201;DHT22;47065;52.898;6.992;2022-12-29T01:35:03;10.70;99.90
61201;DHT22;47065;52.898;6.992;2022-12-29T01:37:29;10.70;99.90
61201;DHT22;47065;52.898;6.992;2022-12-29T01:39:54;10.70;99.90
61201;DHT22;47065;52.898;6.992;2022-12-29T01:42:24;10.80;99.90
61201;DHT22;47065;52.898;6.992;2022-12-29T01:45:00;10.80;99.90
61201;DHT22;47065;52.898;6.992;2022-12-29T01:47:49;10.80;99.90
61201;DHT22;47065;52.898;6.992;2022-12-29T01:50:26;10.80;99.90
61201;DHT22;47065;52.898;6.992;2022-12-29T01:55:32;10.90;99.90
61201;DHT22;47065;52.898;6.992;2022-12-29T01:58:00;10.90;99.90
61201;DHT22;47065;52.898;6.992;2022-12-29T02:00:28;10.90;99.90
61201;DHT22;47065;52.898;6.992;2022-12-29T02:02:54;10.90;99.90
61201;DHT22;47065;52.898;6.992;2022-12-29T02:05:37;11.00;99.90
61201;DHT22;47065;52.898;6.992;2022-12-29T02:08:04;11.00;99.90
61201;DHT22;47065;52.898;6.992;2022-12-29T02:10:32;11.00;99.90
61201;DHT22;47065;52.898;6.992;2022-12-29T02:12:59;11.00;99.90
61201;DHT22;47065;52.898;6.992;2022-12-29T02:15:45;11.00;99.90
61201;DHT22;47065;52.898;6.992;2022-12-29T02:33:13;11.10;99.90
61201;DHT22;47065;52.898;6.992;2022-12-29T02:43:51;11.10;99.90
61201;DHT22;47065;52.898;6.992;2022-12-29T02:46:58;11.10;99.90
61201;DHT22;47065;52.898;6.992;2022-12-29T02:54:09;11.00;99.90
61201;DHT22;47065;52.898;6.992;2022-12-29T02:56:54;10.90;99.90
61201;DHT22;47065;52.898;6.992;2022-12-29T02:59:20;10.90;99.90
61201;DHT22;47065;52.898;6.992;2022-12-29T03:02:06;10.80;99.90
61201;DHT22;47065;52.898;6.992;2022-12-29T03:08:06;10.70;99.90
61201;DHT22;47065;52.898;6.992;2022-12-29T03:16:23;10.60;99.90
61201;DHT22;47065;52.898;6.992;2022-12-29T03:19:16;10.50;99.90
61201;DHT22;47065;52.898;6.992;2022-12-29T03:21:50;10.50;99.90
61201;DHT22;47065;52.898;6.992;2022-12-29T03:24:43;10.50;99.90
61201;DHT22;47065;52.898;6.992;2022-12-29T03:27:13;10.40;99.90
61201;DHT22;47065;52.898;6.992;2022-12-29T03:29:45;10.40;99.90
61201;DHT22;47065;52.898;6.992;2022-12-29T03:32:13;10.40;99.90
61201;DHT22;47065;52.898;6.992;2022-12-29T03:34:40;10.30;99.90
61201;DHT22;47065;52.898;6.992;2022-12-29T03:37:15;10.30;99.90
61201;DHT22;47065;52.898;6.992;2022-12-29T03:39:42;10.30;99.90
61201;DHT22;47065;52.898;6.992;2022-12-29T03:42:17;10.20;99.90
61201;DHT22;47065;52.898;6.992;2022-12-29T03:44:44;10.20;99.90
61201;DHT22;47065;52.898;6.992;2022-12-29T03:47:11;10.20;99.90
61201;DHT22;47065;52.898;6.992;2022-12-29T03:49:37;10.20;99.90
61201;DHT22;47065;52.898;6.992;2022-12-29T03:52:03;10.20;99.90
61201;DHT22;47065;52.898;6.992;2022-12-29T03:54:29;10.10;99.90
61201;DHT22;47065;52.898;6.992;2022-12-29T03:56:55;10.20;99.90
61201;DHT22;47065;52.898;6.992;2022-12-29T03:59:23;10.20;99.90
61201;DHT22;47065;52.898;6.992;2022-12-29T04:01:49;10.20;99.90
61201;DHT22;47065;52.898;6.992;2022-12-29T04:04:14;10.20;99.90
61201;DHT22;47065;52.898;6.992;2022-12-29T04:06:40;10.20;99.90
61201;DHT22;47065;52.898;6.992;2022-12-29T04:09:06;10.30;99.90
61201;DHT22;47065;52.898;6.992;2022-12-29T04:11:32;10.30;99.90
61201;DHT22;47065;52.898;6.992;2022-12-29T04:13:57;10.30;99.90
61201;DHT22;47065;52.898;6.992;2022-12-29T04:16:23;10.40;99.90
61201;DHT22;47065;52.898;6.992;2022-12-29T04:18:49;10.40;99.90
61201;DHT22;47065;52.898;6.992;2022-12-29T04:21:14;10.40;99.90
61201;DHT22;47065;52.898;6.992;2022-12-29T04:23:40;10.40;99.90
61201;DHT22;47065;52.898;6.992;2022-12-29T04:26:07;10.40;99.90
61201;DHT22;47065;52.898;6.992;2022-12-29T04:28:33;10.40;99.90
61201;DHT22;47065;52.898;6.992;2022-12-29T04:30:58;10.40;99.90
61201;DHT22;47065;52.898;6.992;2022-12-29T04:33:25;10.40;99.90
61201;DHT22;47065;52.898;6.992;2022-12-29T04:35:51;10.40;99.90
61201;DHT22;47065;52.898;6.992;2022-12-29T04:38:19;10.50;99.90
61201;DHT22;47065;52.898;6.992;2022-12-29T04:40:46;10.50;99.90
61201;DHT22;47065;52.898;6.992;2022-12-29T04:43:12;10.50;99.90
61201;DHT22;47065;52.898;6.992;2022-12-29T04:45:42;10.50;99.90
61201;DHT22;47065;52.898;6.992;2022-12-29T04:48:08;10.50;99.90
61201;DHT22;47065;52.898;6.992;2022-12-29T04:50:34;10.50;99.90
61201;DHT22;47065;52.898;6.992;2022-12-29T04:53:00;10.60;99.90
61201;DHT22;47065;52.898;6.992;2022-12-29T04:55:25;10.50;99.90
61201;DHT22;47065;52.898;6.992;2022-12-29T04:57:51;10.50;99.90
61201;DHT22;47065;52.898;6.992;2022-12-29T05:00:19;10.50;99.90
61201;DHT22;47065;52.898;6.992;2022-12-29T05:02:45;10.50;99.90
61201;DHT22;47065;52.898;6.992;2022-12-29T05:05:11;10.50;99.90
61201;DHT22;47065;52.898;6.992;2022-12-29T05:07:37;10.50;99.90
61201;DHT22;47065;52.898;6.992;2022-12-29T05:10:04;10.50;99.90
61201;DHT22;47065;52.898;6.992;2022-12-29T05:12:31;10.50;99.90
61201;DHT22;47065;52.898;6.992;2022-12-29T05:14:57;10.50;99.90
61201;DHT22;47065;52.898;6.992;2022-12-29T05:17:22;10.40;99.90
61201;DHT22;47065;52.898;6.992;2022-12-29T05:19:48;10.40;99.90
61201;DHT22;47065;52.898;6.992;2022-12-29T05:22:14;10.40;99.90
61201;DHT22;47065;52.898;6.992;2022-12-29T05:24:40;10.50;99.90
61201;DHT22;47065;52.898;6.992;2022-12-29T05:27:05;10.50;99.90
61201;DHT22;47065;52.898;6.992;2022-12-29T05:29:31;10.50;99.90
61201;DHT22;47065;52.898;6.992;2022-12-29T05:31:57;10.50;99.90
61201;DHT22;47065;52.898;6.992;2022-12-29T05:34:23;10.40;99.90
61201;DHT22;47065;52.898;6.992;2022-12-29T05:36:48;10.40;99.90
61201;DHT22;47065;52.898;6.992;2022-12-29T05:39:14;10.40;99.90
61201;DHT22;47065;52.898;6.992;2022-12-29T05:41:39;10.40;99.90
61201;DHT22;47065;52.898;6.992;2022-12-29T05:44:05;10.30;99.90
61201;DHT22;47065;52.898;6.992;2022-12-29T05:46:31;10.30;99.90
61201;DHT22;47065;52.898;6.992;2022-12-29T05:48:57;10.30;99.90
61201;DHT22;47065;52.898;6.992;2022-12-29T05:51:23;10.30;99.90
61201;DHT22;47065;52.898;6.992;2022-12-29T05:53:49;10.20;99.90
61201;DHT22;47065;52.898;6.992;2022-12-29T05:56:17;10.20;99.90
61201;DHT22;47065;52.898;6.992;2022-12-29T05:58:43;10.20;99.90
61201;DHT22;47065;52.898;6.992;2022-12-29T06:01:08;10.20;99.90
61201;DHT22;47065;52.898;6.992;2022-12-29T06:03:34;10.30;99.90
61201;DHT22;47065;52.898;6.992;2022-12-29T06:06:00;10.20;99.90
61201;DHT22;47065;52.898;6.992;2022-12-29T06:08:25;10.20;99.90
61201;DHT22;47065;52.898;6.992;2022-12-29T06:10:51;10.20;99.90
61201;DHT22;47065;52.898;6.992;2022-12-29T06:13:17;10.20;99.90
61201;DHT22;47065;52.898;6.992;2022-12-29T06:15:42;10.20;99.90
61201;DHT22;47065;52.898;6.992;2022-12-29T06:18:08;10.20;99.90
61201;DHT22;47065;52.898;6.992;2022-12-29T06:20:37;10.10;99.90
61201;DHT22;47065;52.898;6.992;2022-12-29T06:23:02;10.10;99.90
61201;DHT22;47065;52.898;6.992;2022-12-29T06:25:29;10.10;99.90
61201;DHT22;47065;52.898;6.992;2022-12-29T06:27:57;10.10;99.90
61201;DHT22;47065;52.898;6.992;2022-12-29T06:30:23;10.10;99.90
61201;DHT22;47065;52.898;6.992;2022-12-29T06:32:49;10.10;99.90
61201;DHT22;47065;52.898;6.992;2022-12-29T06:35:14;10.10;99.90
61201;DHT22;47065;52.898;6.992;2022-12-29T06:37:40;10.00;99.90
61201;DHT22;47065;52.898;6.992;2022-12-29T06:40:06;10.00;99.90
61201;DHT22;47065;52.898;6.992;2022-12-29T06:42:32;10.00;99.90
61201;DHT22;47065;52.898;6.992;2022-12-29T06:44:57;10.00;99.90
61201;DHT22;47065;52.898;6.992;2022-12-29T06:47:25;10.00;99.90
61201;DHT22;47065;52.898;6.992;2022-12-29T06:49:51;10.10;99.90
61201;DHT22;47065;52.898;6.992;2022-12-29T06:52:17;10.10;99.90
61201;DHT22;47065;52.898;6.992;2022-12-29T06:54:42;10.10;99.90
61201;DHT22;47065;52.898;6.992;2022-12-29T06:57:08;10.10;99.90
61201;DHT22;47065;52.898;6.992;2022-12-29T06:59:34;10.10;99.90
61201;DHT22;47065;52.898;6.992;2022-12-29T07:01:59;10.10;99.90
61201;DHT22;47065;52.898;6.992;2022-12-29T07:04:27;10.10;99.90
61201;DHT22;47065;52.898;6.992;2022-12-29T07:06:53;10.10;99.90
61201;DHT22;47065;52.898;6.992;2022-12-29T07:09:19;10.10;99.90
61201;DHT22;47065;52.898;6.992;2022-12-29T07:11:45;10.00;99.90
61201;DHT22;47065;52.898;6.992;2022-12-29T07:14:11;10.00;99.90
61201;DHT22;47065;52.898;6.992;2022-12-29T07:16:37;10.00;99.90
61201;DHT22;47065;52.898;6.992;2022-12-29T07:19:03;10.00;99.90
61201;DHT22;47065;52.898;6.992;2022-12-29T07:21:29;10.00;99.90
61201;DHT22;47065;52.898;6.992;2022-12-29T07:23:55;10.00;99.90
61201;DHT22;47065;52.898;6.992;2022-12-29T07:26:21;10.00;99.90
61201;DHT22;47065;52.898;6.992;2022-12-29T07:28:46;9.90;99.90
61201;DHT22;47065;52.898;6.992;2022-12-29T07:31:19;10.00;99.90
61201;DHT22;47065;52.898;6.992;2022-12-29T07:33:46;9.90;99.90
61201;DHT22;47065;52.898;6.992;2022-12-29T07:36:13;10.00;99.90
61201;DHT22;47065;52.898;6.992;2022-12-29T07:38:39;9.90;99.90
61201;DHT22;47065;52.898;6.992;2022-12-29T07:41:05;9.90;99.90
61201;DHT22;47065;52.898;6.992;2022-12-29T07:43:31;9.90;99.90
61201;DHT22;47065;52.898;6.992;2022-12-29T07:45:57;9.90;99.90
61201;DHT22;47065;52.898;6.992;2022-12-29T07:48:22;9.90;99.90
61201;DHT22;47065;52.898;6.992;2022-12-29T07:50:48;9.90;99.90
61201;DHT22;47065;52.898;6.992;2022-12-29T07:53:14;9.80;99.90
61201;DHT22;47065;52.898;6.992;2022-12-29T07:55:40;9.80;99.90
61201;DHT22;47065;52.898;6.992;2022-12-29T07:58:06;9.80;99.90
61201;DHT22;47065;52.898;6.992;2022-12-29T08:00:32;9.80;99.90
61201;DHT22;47065;52.898;6.992;2022-12-29T08:02:58;9.80;99.90
61201;DHT22;47065;52.898;6.992;2022-12-29T08:05:24;9.70;99.90
61201;DHT22;47065;52.898;6.992;2022-12-29T08:07:49;9.70;99.90
61201;DHT22;47065;52.898;6.992;2022-12-29T08:10:15;9.70;99.90
61201;DHT22;47065;52.898;6.992;2022-12-29T08:12:41;9.70;99.90
61201;DHT22;47065;52.898;6.992;2022-12-29T08:15:09;9.70;99.90
61201;DHT22;47065;52.898;6.992;2022-12-29T08:17:35;9.70;99.90
61201;DHT22;47065;52.898;6.992;2022-12-29T08:20:01;9.70;99.90
61201;DHT22;47065;52.898;6.992;2022-12-29T08:22:27;9.70;99.90
61201;DHT22;47065;52.898;6.992;2022-12-29T08:24:52;9.70;99.90
61201;DHT22;47065;52.898;6.992;2022-12-29T08:27:18;9.70;99.90
61201;DHT22;47065;52.898;6.992;2022-12-29T08:29:44;9.70;99.90
61201;DHT22;47065;52.898;6.992;2022-12-29T08:32:10;9.70;99.90
61201;DHT22;47065;52.898;6.992;2022-12-29T08:34:36;9.70;99.90
61201;DHT22;47065;52.898;6.992;2022-12-29T08:37:02;9.70;99.90
61201;DHT22;47065;52.898;6.992;2022-12-29T08:39:27;9.70;99.90
61201;DHT22;47065;52.898;6.992;2022-12-29T08:41:54;9.70;99.90
61201;DHT22;47065;52.898;6.992;2022-12-29T08:44:20;9.70;99.90
61201;DHT22;47065;52.898;6.992;2022-12-29T08:46:46;9.70;99.90
61201;DHT22;47065;52.898;6.992;2022-12-29T08:49:11;9.70;99.90
61201;DHT22;47065;52.898;6.992;2022-12-29T08:51:37;9.70;99.90
61201;DHT22;47065;52.898;6.992;2022-12-29T08:54:02;9.70;99.90
61201;DHT22;47065;52.898;6.992;2022-12-29T08:56:28;9.70;99.90
61201;DHT22;47065;52.898;6.992;2022-12-29T08:58:54;9.80;99.90
61201;DHT22;47065;52.898;6.992;2022-12-29T09:01:20;9.80;99.90
61201;DHT22;47065;52.898;6.992;2022-12-29T09:03:46;9.80;99.90
61201;DHT22;47065;52.898;6.992;2022-12-29T09:06:13;9.90;99.90
61201;DHT22;47065;52.898;6.992;2022-12-29T09:08:38;9.90;99.90
61201;DHT22;47065;52.898;6.992;2022-12-29T09:11:09;9.90;99.90
61201;DHT22;47065;52.898;6.992;2022-12-29T09:13:34;9.80;99.90
61201;DHT22;47065;52.898;6.992;2022-12-29T09:16:00;9.80;99.90
61201;DHT22;47065;52.898;6.992;2022-12-29T09:18:26;9.80;99.90
61201;DHT22;47065;52.898;6.992;2022-12-29T09:20:59;9.80;99.90
61201;DHT22;47065;52.898;6.992;2022-12-29T09:23:25;9.80;99.90
61201;DHT22;47065;52.898;6.992;2022-12-29T09:25:52;9.80;99.90
61201;DHT22;47065;52.898;6.992;2022-12-29T09:28:17;9.80;99.90
61201;DHT22;47065;52.898;6.992;2022-12-29T09:30:43;9.80;99.90
61201;DHT22;47065;52.898;6.992;2022-12-29T09:33:09;9.80;99.90
61201;DHT22;47065;52.898;6.992;2022-12-29T09:35:34;9.80;99.90
61201;DHT22;47065;52.898;6.992;2022-12-29T09:38:00;9.80;99.90
61201;DHT22;47065;52.898;6.992;2022-12-29T09:40:31;9.80;99.90
61201;DHT22;47065;52.898;6.992;2022-12-29T09:49:23;9.80;99.90
61201;DHT22;47065;52.898;6.992;2022-12-29T09:51:56;9.90;99.90
61201;DHT22;47065;52.898;6.992;2022-12-29T09:57:16;9.80;99.90
61201;DHT22;47065;52.898;6.992;2022-12-29T09:59:45;9.80;99.90
61201;DHT22;47065;52.898;6.992;2022-12-29T10:02:23;9.80;99.90
61201;DHT22;47065;52.898;6.992;2022-12-29T10:04:52;9.80;99.90
61201;DHT22;47065;52.898;6.992;2022-12-29T10:07:38;9.70;99.90
61201;DHT22;47065;52.898;6.992;2022-12-29T10:10:25;9.70;99.90
61201;DHT22;47065;52.898;6.992;2022-12-29T10:13:08;9.70;99.90
61201;DHT22;47065;52.898;6.992;2022-12-29T10:16:09;9.70;99.90
61201;DHT22;47065;52.898;6.992;2022-12-29T10:23:59;9.60;99.90
61201;DHT22;47065;52.898;6.992;2022-12-29T10:26:30;9.60;99.90
61201;DHT22;47065;52.898;6.992;2022-12-29T10:29:05;9.50;99.90
61201;DHT22;47065;52.898;6.992;2022-12-29T10:31:44;9.60;99.90
61201;DHT22;47065;52.898;6.992;2022-12-29T10:36:54;9.60;99.90
61201;DHT22;47065;52.898;6.992;2022-12-29T10:42:04;9.70;99.90
61201;DHT22;47065;52.898;6.992;2022-12-29T10:44:33;9.70;99.90
61201;DHT22;47065;52.898;6.992;2022-12-29T10:47:03;9.80;99.90
61201;DHT22;47065;52.898;6.992;2022-12-29T10:49:31;9.80;99.90
61201;DHT22;47065;52.898;6.992;2022-12-29T10:52:00;9.80;99.90
61201;DHT22;47065;52.898;6.992;2022-12-29T10:54:29;9.90;99.90
61201;DHT22;47065;52.898;6.992;2022-12-29T10:57:09;9.90;99.90
61201;DHT22;47065;52.898;6.992;2022-12-29T10:59:36;9.90;99.90
61201;DHT22;47065;52.898;6.992;2022-12-29T11:04:55;9.80;99.90
61201;DHT22;47065;52.898;6.992;2022-12-29T11:07:23;9.80;99.90
61201;DHT22;47065;52.898;6.992;2022-12-29T11:09:48;9.80;99.90
61201;DHT22;47065;52.898;6.992;2022-12-29T11:12:24;9.70;99.90
61201;DHT22;47065;52.898;6.992;2022-12-29T11:18:09;9.60;99.90
61201;DHT22;47065;52.898;6.992;2022-12-29T11:20:43;9.60;99.90
61201;DHT22;47065;52.898;6.992;2022-12-29T11:26:14;9.60;99.90
61201;DHT22;47065;52.898;6.992;2022-12-29T11:28:44;9.60;99.90
61201;DHT22;47065;52.898;6.992;2022-12-29T11:31:10;9.60;99.90
61201;DHT22;47065;52.898;6.992;2022-12-29T11:33:38;9.60;99.90
61201;DHT22;47065;52.898;6.992;2022-12-29T11:36:10;9.60;99.90
61201;DHT22;47065;52.898;6.992;2022-12-29T11:38:40;9.60;99.90
61201;DHT22;47065;52.898;6.992;2022-12-29T11:41:11;9.60;99.90
61201;DHT22;47065;52.898;6.992;2022-12-29T11:43:39;9.60;99.90
61201;DHT22;47065;52.898;6.992;2022-12-29T11:46:06;9.60;99.90
61201;DHT22;47065;52.898;6.992;2022-12-29T11:48:39;9.60;99.90
61201;DHT22;47065;52.898;6.992;2022-12-29T11:51:06;9.60;99.90
61201;DHT22;47065;52.898;6.992;2022-12-29T11:53:45;9.60;99.90
61201;DHT22;47065;52.898;6.992;2022-12-29T11:56:15;9.60;99.90
61201;DHT22;47065;52.898;6.992;2022-12-29T11:58:41;9.50;99.90
61201;DHT22;47065;52.898;6.992;2022-12-29T12:03:46;9.50;99.90
61201;DHT22;47065;52.898;6.992;2022-12-29T12:06:16;9.50;99.90
61201;DHT22;47065;52.898;6.992;2022-12-29T12:09:02;9.50;99.90
61201;DHT22;47065;52.898;6.992;2022-12-29T12:11:34;9.60;99.90
61201;DHT22;47065;52.898;6.992;2022-12-29T12:16:47;9.60;99.90
61201;DHT22;47065;52.898;6.992;2022-12-29T12:19:20;9.60;99.90
61201;DHT22;47065;52.898;6.992;2022-12-29T12:21:56;9.60;99.90
61201;DHT22;47065;52.898;6.992;2022-12-29T12:24:43;9.60;99.90
61201;DHT22;47065;52.898;6.992;2022-12-29T12:30:04;9.50;99.90
61201;DHT22;47065;52.898;6.992;2022-12-29T12:35:13;9.40;99.90
61201;DHT22;47065;52.898;6.992;2022-12-29T12:40:46;9.40;99.90
61201;DHT22;47065;52.898;6.992;2022-12-29T12:43:22;9.40;99.90
61201;DHT22;47065;52.898;6.992;2022-12-29T12:49:13;9.30;99.90
61201;DHT22;47065;52.898;6.992;2022-12-29T13:10:47;9.60;99.90
61201;DHT22;47065;52.898;6.992;2022-12-29T13:19:14;9.60;99.90
61201;DHT22;47065;52.898;6.992;2022-12-29T13:21:54;9.60;99.90
61201;DHT22;47065;52.898;6.992;2022-12-29T13:29:35;9.60;99.90
61201;DHT22;47065;52.898;6.992;2022-12-29T13:35:52;9.50;99.90
61201;DHT22;47065;52.898;6.992;2022-12-29T13:38:12;9.40;99.90
61201;DHT22;47065;52.898;6.992;2022-12-29T13:40:43;9.40;99.90
61201;DHT22;47065;52.898;6.992;2022-12-29T13:43:12;9.40;99.90
61201;DHT22;47065;52.898;6.992;2022-12-29T13:45:39;9.40;99.90
61201;DHT22;47065;52.898;6.992;2022-12-29T13:48:15;9.40;99.90
61201;DHT22;47065;52.898;6.992;2022-12-29T13:50:45;9.40;99.90
61201;DHT22;47065;52.898;6.992;2022-12-29T13:56:06;9.30;99.90
61201;DHT22;47065;52.898;6.992;2022-12-29T13:58:54;9.30;99.90
61201;DHT22;47065;52.898;6.992;2022-12-29T14:01:46;9.40;99.90
61201;DHT22;47065;52.898;6.992;2022-12-29T14:04:21;9.40;99.90
61201;DHT22;47065;52.898;6.992;2022-12-29T14:06:52;9.40;99.90
61201;DHT22;47065;52.898;6.992;2022-12-29T14:12:01;9.40;99.90
61201;DHT22;47065;52.898;6.992;2022-12-29T14:14:43;9.40;99.90
61201;DHT22;47065;52.898;6.992;2022-12-29T14:17:11;9.40;99.90
61201;DHT22;47065;52.898;6.992;2022-12-29T14:19:42;9.40;99.90
61201;DHT22;47065;52.898;6.992;2022-12-29T14:22:09;9.40;99.90
61201;DHT22;47065;52.898;6.992;2022-12-29T14:24:44;9.40;99.90
61201;DHT22;47065;52.898;6.992;2022-12-29T14:34:56;9.30;99.90
61201;DHT22;47065;52.898;6.992;2022-12-29T14:40:23;9.30;99.90
61201;DHT22;47065;52.898;6.992;2022-12-29T14:42:52;9.30;99.90
61201;DHT22;47065;52.898;6.992;2022-12-29T14:47:49;9.30;99.90
61201;DHT22;47065;52.898;6.992;2022-12-29T14:53:03;9.30;99.90
61201;DHT22;47065;52.898;6.992;2022-12-29T14:58:05;9.30;99.90
61201;DHT22;47065;52.898;6.992;2022-12-29T15:00:34;9.30;99.90
61201;DHT22;47065;52.898;6.992;2022-12-29T15:05:46;9.30;99.90
61201;DHT22;47065;52.898;6.992;2022-12-29T15:08:23;9.20;99.90
61201;DHT22;47065;52.898;6.992;2022-12-29T15:10:55;9.20;99.90
61201;DHT22;47065;52.898;6.992;2022-12-29T15:13:34;9.20;99.90
61201;DHT22;47065;52.898;6.992;2022-12-29T15:16:00;9.10;99.90
61201;DHT22;47065;52.898;6.992;2022-12-29T15:18:29;9.10;99.90
61201;DHT22;47065;52.898;6.992;2022-12-29T15:21:04;9.10;99.90
61201;DHT22;47065;52.898;6.992;2022-12-29T15:23:31;9.10;99.90
61201;DHT22;47065;52.898;6.992;2022-12-29T15:26:06;9.10;99.90
61201;DHT22;47065;52.898;6.992;2022-12-29T15:28:42;9.10;99.90
61201;DHT22;47065;52.898;6.992;2022-12-29T15:33:44;9.10;99.90
61201;DHT22;47065;52.898;6.992;2022-12-29T15:36:29;9.10;99.90
61201;DHT22;47065;52.898;6.992;2022-12-29T15:39:20;9.10;99.90
61201;DHT22;47065;52.898;6.992;2022-12-29T15:42:16;9.10;99.90
61201;DHT22;47065;52.898;6.992;2022-12-29T15:44:45;9.10;99.90
61201;DHT22;47065;52.898;6.992;2022-12-29T15:47:19;9.10;99.90
61201;DHT22;47065;52.898;6.992;2022-12-29T15:49:49;9.00;99.90
61201;DHT22;47065;52.898;6.992;2022-12-29T15:52:20;9.00;99.90
61201;DHT22;47065;52.898;6.992;2022-12-29T15:54:50;8.90;99.90
61201;DHT22;47065;52.898;6.992;2022-12-29T15:57:29;8.90;99.90
61201;DHT22;47065;52.898;6.992;2022-12-29T15:59:55;8.90;99.90
61201;DHT22;47065;52.898;6.992;2022-12-29T16:02:22;8.90;99.90
61201;DHT22;47065;52.898;6.992;2022-12-29T16:04:48;8.90;99.90
61201;DHT22;47065;52.898;6.992;2022-12-29T16:07:28;8.80;99.90
61201;DHT22;47065;52.898;6.992;2022-12-29T16:09:55;8.80;99.90
61201;DHT22;47065;52.898;6.992;2022-12-29T16:12:24;8.80;99.90
61201;DHT22;47065;52.898;6.992;2022-12-29T16:14:57;8.80;99.90
61201;DHT22;47065;52.898;6.992;2022-12-29T16:17:30;8.80;99.90
61201;DHT22;47065;52.898;6.992;2022-12-29T16:19:59;8.70;99.90
61201;DHT22;47065;52.898;6.992;2022-12-29T16:22:33;8.70;99.90
61201;DHT22;47065;52.898;6.992;2022-12-29T16:25:27;8.70;99.90
61201;DHT22;47065;52.898;6.992;2022-12-29T16:27:51;8.80;99.90
61201;DHT22;47065;52.898;6.992;2022-12-29T16:30:24;8.70;99.90
61201;DHT22;47065;52.898;6.992;2022-12-29T16:32:56;8.70;99.90
61201;DHT22;47065;52.898;6.992;2022-12-29T16:35:27;8.70;99.90
61201;DHT22;47065;52.898;6.992;2022-12-29T16:38:30;8.60;99.90
61201;DHT22;47065;52.898;6.992;2022-12-29T16:41:02;8.60;99.90
61201;DHT22;47065;52.898;6.992;2022-12-29T16:43:34;8.50;99.90
61201;DHT22;47065;52.898;6.992;2022-12-29T16:48:30;8.50;99.90
61201;DHT22;47065;52.898;6.992;2022-12-29T16:53:40;8.40;99.90
61201;DHT22;47065;52.898;6.992;2022-12-29T16:56:15;8.40;99.90
61201;DHT22;47065;52.898;6.992;2022-12-29T16:58:46;8.40;99.90
61201;DHT22;47065;52.898;6.992;2022-12-29T17:01:12;8.40;99.90
61201;DHT22;47065;52.898;6.992;2022-12-29T17:03:47;8.40;99.90
61201;DHT22;47065;52.898;6.992;2022-12-29T17:06:15;8.40;99.90
61201;DHT22;47065;52.898;6.992;2022-12-29T17:08:42;8.40;99.90
61201;DHT22;47065;52.898;6.992;2022-12-29T17:11:29;8.40;99.90
61201;DHT22;47065;52.898;6.992;2022-12-29T17:17:24;8.40;99.90
61201;DHT22;47065;52.898;6.992;2022-12-29T17:19:56;8.40;99.90
61201;DHT22;47065;52.898;6.992;2022-12-29T17:22:27;8.40;99.90
61201;DHT22;47065;52.898;6.992;2022-12-29T17:24:57;8.40;99.90
61201;DHT22;47065;52.898;6.992;2022-12-29T17:27:28;8.40;99.90
61201;DHT22;47065;52.898;6.992;2022-12-29T17:29:57;8.40;99.90
61201;DHT22;47065;52.898;6.992;2022-12-29T17:32:24;8.30;99.90
61201;DHT22;47065;52.898;6.992;2022-12-29T17:34:49;8.20;99.90
61201;DHT22;47065;52.898;6.992;2022-12-29T17:37:36;7.90;99.90
61201;DHT22;47065;52.898;6.992;2022-12-29T17:40:04;7.50;99.90
61201;DHT22;47065;52.898;6.992;2022-12-29T17:42:31;7.10;99.90
61201;DHT22;47065;52.898;6.992;2022-12-29T17:44:59;6.80;99.90
61201;DHT22;47065;52.898;6.992;2022-12-29T17:47:25;6.60;99.90
61201;DHT22;47065;52.898;6.992;2022-12-29T17:49:51;6.50;99.90
61201;DHT22;47065;52.898;6.992;2022-12-29T17:52:17;6.40;99.90
61201;DHT22;47065;52.898;6.992;2022-12-29T17:54:50;6.40;99.90
61201;DHT22;47065;52.898;6.992;2022-12-29T17:57:18;6.40;99.90
61201;DHT22;47065;52.898;6.992;2022-12-29T17:59:44;6.50;99.90
61201;DHT22;47065;52.898;6.992;2022-12-29T18:02:30;6.60;99.90
61201;DHT22;47065;52.898;6.992;2022-12-29T18:04:57;6.80;99.90
61201;DHT22;47065;52.898;6.992;2022-12-29T18:07:28;6.90;99.90
61201;DHT22;47065;52.898;6.992;2022-12-29T18:09:54;7.00;99.90
61201;DHT22;47065;52.898;6.992;2022-12-29T18:14:53;7.20;99.90
61201;DHT22;47065;52.898;6.992;2022-12-29T18:17:19;7.30;99.90
61201;DHT22;47065;52.898;6.992;2022-12-29T18:19:44;7.40;99.90
61201;DHT22;47065;52.898;6.992;2022-12-29T18:22:10;7.50;99.90
61201;DHT22;47065;52.898;6.992;2022-12-29T18:24:36;7.60;99.90
61201;DHT22;47065;52.898;6.992;2022-12-29T18:27:12;7.60;99.90
61201;DHT22;47065;52.898;6.992;2022-12-29T18:29:38;7.60;99.90
61201;DHT22;47065;52.898;6.992;2022-12-29T18:32:05;7.70;99.90
61201;DHT22;47065;52.898;6.992;2022-12-29T18:34:34;7.70;99.90
61201;DHT22;47065;52.898;6.992;2022-12-29T18:36:59;7.70;99.90
61201;DHT22;47065;52.898;6.992;2022-12-29T18:39:27;7.80;99.90